sensor_id;sensor_type;location;lat;lon;timestamp;temperature;humidity
4755;DHT22;2391;47.212;7.542;2024-01-11T00:00:35;1.10;99.90
4755;DHT22;2391;47.212;7.542;2024-01-11T00:03:01;1.00;99.90
4755;DHT22;2391;47.212;7.542;2024-01-11T00:05:27;1.00;99.90
4755;DHT22;2391;47.212;7.542;2024-01-11T00:07:53;1.00;99.90
4755;DHT22;2391;47.212;7.542;2024-01-11T00:10:19;1.10;99.90
4755;DHT22;2391;47.212;7.542;2024-01-11T00:12:46;1.10;99.90
4755;DHT22;2391;47.212;7.542;2024-01-11T00:15:12;1.00;99.90
4755;DHT22;2391;47.212;7.542;2024-01-11T00:17:38;1.00;99.90
4755;DHT22;2391;47.212;7.542;2024-01-11T00:20:05;0.90;99.90
4755;DHT22;2391;47.212;7.542;2024-01-11T00:22:31;0.90;99.90
4755;DHT22;2391;47.212;7.542;2024-01-11T00:24:57;1.00;99.90
4755;DHT22;2391;47.212;7.542;2024-01-11T00:27:23;1.10;99.90
4755;DHT22;2391;47.212;7.542;2024-01-11T00:29:49;1.20;99.90
4755;DHT22;2391;47.212;7.542;2024-01-11T00:32:15;1.30;99.90
4755;DHT22;2391;47.212;7.542;2024-01-11T00:34:41;1.40;99.90
4755;DHT22;2391;47.212;7.542;2024-01-11T00:37:06;1.40;99.90
4755;DHT22;2391;47.212;7.542;2024-01-11T00:39:32;1.40;99.90
4755;DHT22;2391;47.212;7.542;2024-01-11T00:41:58;1.40;99.90
4755;DHT22;2391;47.212;7.542;2024-01-11T00:44:24;1.40;99.90
4755;DHT22;2391;47.212;7.542;2024-01-11T00:46:50;1.40;99.90
4755;DHT22;2391;47.212;7.542;2024-01-11T00:49:16;1.40;99.90
4755;DHT22;2391;47.212;7.542;2024-01-11T00:51:41;1.40;99.90
4755;DHT22;2391;47.212;7.542;2024-01-11T00:54:07;1.40;99.90
4755;DHT22;2391;47.212;7.542;2024-01-11T00:56:33;1.50;99.90
4755;DHT22;2391;47.212;7.542;2024-01-11T00:58:59;1.40;99.90
4755;DHT22;2391;47.212;7.542;2024-01-11T01:01:25;1.40;99.90
4755;DHT22;2391;47.212;7.542;2024-01-11T01:03:50;1.40;99.90
4755;DHT22;2391;47.212;7.542;2024-01-11T01:06:16;1.50;99.90
4755;DHT22;2391;47.212;7.542;2024-01-11T01:08:43;1.50;99.90
4755;DHT22;2391;47.212;7.542;2024-01-11T01:11:08;1.50;99.90
4755;DHT22;2391;47.212;7.542;2024-01-11T01:13:34;1.50;99.90
4755;DHT22;2391;47.212;7.542;2024-01-11T01:16:00;1.50;99.90
4755;DHT22;2391;47.212;7.542;2024-01-11T01:18:26;1.50;99.90
4755;DHT22;2391;47.212;7.542;2024-01-11T01:20:52;1.60;99.90
4755;DHT22;2391;47.212;7.542;2024-01-11T01:23:17;1.60;99.90
4755;DHT22;2391;47.212;7.542;2024-01-11T01:25:44;1.80;99.90
4755;DHT22;2391;47.212;7.542;2024-01-11T01:28:10;1.80;99.90
4755;DHT22;2391;47.212;7.542;2024-01-11T01:30:36;1.80;99.90
4755;DHT22;2391;47.212;7.542;2024-01-11T01:33:02;1.70;99.90
4755;DHT22;2391;47.212;7.542;2024-01-11T01:35:28;1.70;99.90
4755;DHT22;2391;47.212;7.542;2024-01-11T01:37:54;1.70;99.90
4755;DHT22;2391;47.212;7.542;2024-01-11T01:40:19;1.70;99.90
4755;DHT22;2391;47.212;7.542;2024-01-11T01:42:45;1.70;99.90
4755;DHT22;2391;47.212;7.542;2024-01-11T01:45:12;1.70;99.90
4755;DHT22;2391;47.212;7.542;2024-01-11T01:47:40;1.70;99.90
4755;DHT22;2391;47.212;7.542;2024-01-11T01:50:06;1.60;99.90
4755;DHT22;2391;47.212;7.542;2024-01-11T01:52:33;1.70;99.90
4755;DHT22;2391;47.212;7.542;2024-01-11T01:55:01;1.60;99.90
4755;DHT22;2391;47.212;7.542;2024-01-11T01:57:28;1.50;99.90
4755;DHT22;2391;47.212;7.542;2024-01-11T01:59:56;1.40;99.90
4755;DHT22;2391;47.212;7.542;2024-01-11T02:02:23;1.40;99.90
4755;DHT22;2391;47.212;7.542;2024-01-11T02:04:49;1.40;99.90
4755;DHT22;2391;47.212;7.542;2024-01-11T02:07:18;1.40;99.90
4755;DHT22;2391;47.212;7.542;2024-01-11T02:09:44;1.40;99.90
4755;DHT22;2391;47.212;7.542;2024-01-11T02:12:10;1.50;99.90
4755;DHT22;2391;47.212;7.542;2024-01-11T02:14:38;1.50;99.90
4755;DHT22;2391;47.212;7.542;2024-01-11T02:17:04;1.40;99.90
4755;DHT22;2391;47.212;7.542;2024-01-11T02:19:30;1.40;99.90
4755;DHT22;2391;47.212;7.542;2024-01-11T02:21:58;1.40;99.90
4755;DHT22;2391;47.212;7.542;2024-01-11T02:24:25;1.30;99.90
4755;DHT22;2391;47.212;7.542;2024-01-11T02:27:04;1.40;99.90
4755;DHT22;2391;47.212;7.542;2024-01-11T02:29:34;1.40;99.90
4755;DHT22;2391;47.212;7.542;2024-01-11T02:32:01;1.40;99.90
4755;DHT22;2391;47.212;7.542;2024-01-11T02:34:27;1.40;99.90
4755;DHT22;2391;47.212;7.542;2024-01-11T02:36:56;1.40;99.90
4755;DHT22;2391;47.212;7.542;2024-01-11T02:39:23;1.40;99.90
4755;DHT22;2391;47.212;7.542;2024-01-11T02:41:51;1.50;99.90
4755;DHT22;2391;47.212;7.542;2024-01-11T02:44:18;1.50;99.90
4755;DHT22;2391;47.212;7.542;2024-01-11T02:46:44;1.50;99.90
4755;DHT22;2391;47.212;7.542;2024-01-11T02:49:09;1.60;99.90
4755;DHT22;2391;47.212;7.542;2024-01-11T02:51:35;1.50;99.90
4755;DHT22;2391;47.212;7.542;2024-01-11T02:54:02;1.50;99.90
4755;DHT22;2391;47.212;7.542;2024-01-11T02:56:28;1.60;99.90
4755;DHT22;2391;47.212;7.542;2024-01-11T02:58:54;1.60;99.90
4755;DHT22;2391;47.212;7.542;2024-01-11T03:01:19;1.60;99.90
4755;DHT22;2391;47.212;7.542;2024-01-11T03:03:45;1.70;99.90
4755;DHT22;2391;47.212;7.542;2024-01-11T03:06:11;1.70;99.90
4755;DHT22;2391;47.212;7.542;2024-01-11T03:08:37;1.70;99.90
4755;DHT22;2391;47.212;7.542;2024-01-11T03:11:03;1.70;99.90
4755;DHT22;2391;47.212;7.542;2024-01-11T03:13:28;1.60;99.90
4755;DHT22;2391;47.212;7.542;2024-01-11T03:15:54;1.70;99.90
4755;DHT22;2391;47.212;7.542;2024-01-11T03:18:20;1.80;99.90
4755;DHT22;2391;47.212;7.542;2024-01-11T03:20:46;1.90;99.90
4755;DHT22;2391;47.212;7.542;2024-01-11T03:23:12;1.90;99.90
4755;DHT22;2391;47.212;7.542;2024-01-11T03:25:37;1.90;99.90
4755;DHT22;2391;47.212;7.542;2024-01-11T03:28:03;1.90;99.90
4755;DHT22;2391;47.212;7.542;2024-01-11T03:30:30;1.80;99.90
4755;DHT22;2391;47.212;7.542;2024-01-11T03:32:55;1.70;99.90
4755;DHT22;2391;47.212;7.542;2024-01-11T03:35:21;1.60;99.90
4755;DHT22;2391;47.212;7.542;2024-01-11T03:37:47;1.50;99.90
4755;DHT22;2391;47.212;7.542;2024-01-11T03:40:13;1.40;99.90
4755;DHT22;2391;47.212;7.542;2024-01-11T03:42:41;1.40;99.90
4755;DHT22;2391;47.212;7.542;2024-01-11T03:45:09;1.30;99.90
4755;DHT22;2391;47.212;7.542;2024-01-11T03:47:35;1.30;99.90
4755;DHT22;2391;47.212;7.542;2024-01-11T03:50:00;1.50;99.90
4755;DHT22;2391;47.212;7.542;2024-01-11T03:52:26;1.60;99.90
4755;DHT22;2391;47.212;7.542;2024-01-11T03:54:52;1.70;99.90
4755;DHT22;2391;47.212;7.542;2024-01-11T03:57:18;1.70;99.90
4755;DHT22;2391;47.212;7.542;2024-01-11T03:59:44;1.70;99.90
4755;DHT22;2391;47.212;7.542;2024-01-11T04:02:10;1.70;99.90
4755;DHT22;2391;47.212;7.542;2024-01-11T04:04:36;1.70;99.90
4755;DHT22;2391;47.212;7.542;2024-01-11T04:07:02;1.60;99.90
4755;DHT22;2391;47.212;7.542;2024-01-11T04:09:28;1.50;99.90
4755;DHT22;2391;47.212;7.542;2024-01-11T04:11:54;1.50;99.90
4755;DHT22;2391;47.212;7.542;2024-01-11T04:14:19;1.50;99.90
4755;DHT22;2391;47.212;7.542;2024-01-11T04:16:45;1.50;99.90
4755;DHT22;2391;47.212;7.542;2024-01-11T04:19:11;1.50;99.90
4755;DHT22;2391;47.212;7.542;2024-01-11T04:21:38;1.60;99.90
4755;DHT22;2391;47.212;7.542;2024-01-11T04:24:05;1.50;99.90
4755;DHT22;2391;47.212;7.542;2024-01-11T04:26:32;1.50;99.90
4755;DHT22;2391;47.212;7.542;2024-01-11T04:28:58;1.50;99.90
4755;DHT22;2391;47.212;7.542;2024-01-11T04:31:26;1.50;99.90
4755;DHT22;2391;47.212;7.542;2024-01-11T04:33:52;1.50;99.90
4755;DHT22;2391;47.212;7.542;2024-01-11T04:36:18;1.50;99.90
4755;DHT22;2391;47.212;7.542;2024-01-11T04:38:44;1.50;99.90
4755;DHT22;2391;47.212;7.542;2024-01-11T04:41:10;1.50;99.90
4755;DHT22;2391;47.212;7.542;2024-01-11T04:43:41;1.50;99.90
4755;DHT22;2391;47.212;7.542;2024-01-11T04:46:15;1.40;99.90
4755;DHT22;2391;47.212;7.542;2024-01-11T04:48:40;1.40;99.90
4755;DHT22;2391;47.212;7.542;2024-01-11T04:51:06;1.40;99.90
4755;DHT22;2391;47.212;7.542;2024-01-11T04:53:32;1.50;99.90
4755;DHT22;2391;47.212;7.542;2024-01-11T04:55:58;1.50;99.90
4755;DHT22;2391;47.212;7.542;2024-01-11T04:58:24;1.50;99.90
4755;DHT22;2391;47.212;7.542;2024-01-11T05:00:50;1.60;99.90
4755;DHT22;2391;47.212;7.542;2024-01-11T05:03:15;1.70;99.90
4755;DHT22;2391;47.212;7.542;2024-01-11T05:05:41;1.70;99.90
4755;DHT22;2391;47.212;7.542;2024-01-11T05:08:07;1.80;99.90
4755;DHT22;2391;47.212;7.542;2024-01-11T05:10:35;1.80;99.90
4755;DHT22;2391;47.212;7.542;2024-01-11T05:13:01;2.00;99.90
4755;DHT22;2391;47.212;7.542;2024-01-11T05:15:27;1.90;99.90
4755;DHT22;2391;47.212;7.542;2024-01-11T05:17:55;1.80;99.90
4755;DHT22;2391;47.212;7.542;2024-01-11T05:20:22;1.90;99.90
4755;DHT22;2391;47.212;7.542;2024-01-11T05:22:48;1.90;99.90
4755;DHT22;2391;47.212;7.542;2024-01-11T05:25:13;1.80;99.90
4755;DHT22;2391;47.212;7.542;2024-01-11T05:27:39;1.70;99.90
4755;DHT22;2391;47.212;7.542;2024-01-11T05:30:06;1.70;99.90
4755;DHT22;2391;47.212;7.542;2024-01-11T05:32:32;1.60;99.90
4755;DHT22;2391;47.212;7.542;2024-01-11T05:34:58;1.60;99.90
4755;DHT22;2391;47.212;7.542;2024-01-11T05:37:24;1.60;99.90
4755;DHT22;2391;47.212;7.542;2024-01-11T05:39:49;1.60;99.90
4755;DHT22;2391;47.212;7.542;2024-01-11T05:42:15;1.50;99.90
4755;DHT22;2391;47.212;7.542;2024-01-11T05:44:41;1.50;99.90
4755;DHT22;2391;47.212;7.542;2024-01-11T05:47:07;1.50;99.90
4755;DHT22;2391;47.212;7.542;2024-01-11T05:49:33;1.50;99.90
4755;DHT22;2391;47.212;7.542;2024-01-11T05:51:58;1.40;99.90
4755;DHT22;2391;47.212;7.542;2024-01-11T05:54:24;1.40;99.90
4755;DHT22;2391;47.212;7.542;2024-01-11T05:56:52;1.30;99.90
4755;DHT22;2391;47.212;7.542;2024-01-11T05:59:19;1.30;99.90
4755;DHT22;2391;47.212;7.542;2024-01-11T06:01:45;1.20;99.90
4755;DHT22;2391;47.212;7.542;2024-01-11T06:04:12;1.20;99.90
4755;DHT22;2391;47.212;7.542;2024-01-11T06:06:37;1.20;99.90
4755;DHT22;2391;47.212;7.542;2024-01-11T06:09:03;1.20;99.90
4755;DHT22;2391;47.212;7.542;2024-01-11T06:11:32;1.10;99.90
4755;DHT22;2391;47.212;7.542;2024-01-11T06:13:58;1.10;99.90
4755;DHT22;2391;47.212;7.542;2024-01-11T06:16:24;1.20;99.90
4755;DHT22;2391;47.212;7.542;2024-01-11T06:18:50;1.20;99.90
4755;DHT22;2391;47.212;7.542;2024-01-11T06:21:16;1.10;99.90
4755;DHT22;2391;47.212;7.542;2024-01-11T06:23:44;1.10;99.90
4755;DHT22;2391;47.212;7.542;2024-01-11T06:26:10;1.10;99.90
4755;DHT22;2391;47.212;7.542;2024-01-11T06:28:36;1.30;99.90
4755;DHT22;2391;47.212;7.542;2024-01-11T06:31:02;1.40;99.90
4755;DHT22;2391;47.212;7.542;2024-01-11T06:33:29;1.40;99.90
4755;DHT22;2391;47.212;7.542;2024-01-11T06:35:55;1.50;99.90
4755;DHT22;2391;47.212;7.542;2024-01-11T06:38:21;1.50;99.90
4755;DHT22;2391;47.212;7.542;2024-01-11T06:40:50;1.50;99.90
4755;DHT22;2391;47.212;7.542;2024-01-11T06:43:16;1.50;99.90
4755;DHT22;2391;47.212;7.542;2024-01-11T06:45:42;1.50;99.90
4755;DHT22;2391;47.212;7.542;2024-01-11T06:48:08;1.60;99.90
4755;DHT22;2391;47.212;7.542;2024-01-11T06:50:34;1.60;99.90
4755;DHT22;2391;47.212;7.542;2024-01-11T06:53:01;1.50;99.90
4755;DHT22;2391;47.212;7.542;2024-01-11T06:55:30;1.40;99.90
4755;DHT22;2391;47.212;7.542;2024-01-11T06:57:56;1.30;99.90
4755;DHT22;2391;47.212;7.542;2024-01-11T07:00:23;1.30;99.90
4755;DHT22;2391;47.212;7.542;2024-01-11T07:02:49;1.40;99.90
4755;DHT22;2391;47.212;7.542;2024-01-11T07:05:15;1.40;99.90
4755;DHT22;2391;47.212;7.542;2024-01-11T07:07:41;1.40;99.90
4755;DHT22;2391;47.212;7.542;2024-01-11T07:10:07;1.40;99.90
4755;DHT22;2391;47.212;7.542;2024-01-11T07:12:34;1.40;99.90
4755;DHT22;2391;47.212;7.542;2024-01-11T07:15:00;1.40;99.90
4755;DHT22;2391;47.212;7.542;2024-01-11T07:17:26;1.40;99.90
4755;DHT22;2391;47.212;7.542;2024-01-11T07:19:52;1.40;99.90
4755;DHT22;2391;47.212;7.542;2024-01-11T07:22:18;1.40;99.90
4755;DHT22;2391;47.212;7.542;2024-01-11T07:24:44;1.30;99.90
4755;DHT22;2391;47.212;7.542;2024-01-11T07:27:10;1.30;99.90
4755;DHT22;2391;47.212;7.542;2024-01-11T07:29:36;1.20;99.90
4755;DHT22;2391;47.212;7.542;2024-01-11T07:32:02;1.30;99.90
4755;DHT22;2391;47.212;7.542;2024-01-11T07:34:29;1.40;99.90
4755;DHT22;2391;47.212;7.542;2024-01-11T07:36:55;1.50;99.90
4755;DHT22;2391;47.212;7.542;2024-01-11T07:39:22;1.50;99.90
4755;DHT22;2391;47.212;7.542;2024-01-11T07:41:48;1.60;99.90
4755;DHT22;2391;47.212;7.542;2024-01-11T07:44:14;1.60;99.90
4755;DHT22;2391;47.212;7.542;2024-01-11T07:46:40;1.70;99.90
4755;DHT22;2391;47.212;7.542;2024-01-11T07:49:06;1.70;99.90
4755;DHT22;2391;47.212;7.542;2024-01-11T07:51:33;1.70;99.90
4755;DHT22;2391;47.212;7.542;2024-01-11T07:54:00;1.70;99.90
4755;DHT22;2391;47.212;7.542;2024-01-11T07:56:26;1.70;99.90
4755;DHT22;2391;47.212;7.542;2024-01-11T07:58:51;1.70;99.90
4755;DHT22;2391;47.212;7.542;2024-01-11T08:01:17;1.70;99.90
4755;DHT22;2391;47.212;7.542;2024-01-11T08:03:43;1.80;99.90
4755;DHT22;2391;47.212;7.542;2024-01-11T08:06:13;1.80;99.90
4755;DHT22;2391;47.212;7.542;2024-01-11T08:08:39;1.70;99.90
4755;DHT22;2391;47.212;7.542;2024-01-11T08:11:07;1.70;99.90
4755;DHT22;2391;47.212;7.542;2024-01-11T08:13:33;1.60;99.90
4755;DHT22;2391;47.212;7.542;2024-01-11T08:16:02;1.50;99.90
4755;DHT22;2391;47.212;7.542;2024-01-11T08:18:34;1.50;99.90
4755;DHT22;2391;47.212;7.542;2024-01-11T08:21:00;1.50;99.90
4755;DHT22;2391;47.212;7.542;2024-01-11T08:23:26;1.50;99.90
4755;DHT22;2391;47.212;7.542;2024-01-11T08:25:52;1.30;99.90
4755;DHT22;2391;47.212;7.542;2024-01-11T08:28:20;1.30;99.90
4755;DHT22;2391;47.212;7.542;2024-01-11T08:30:46;1.20;99.90
4755;DHT22;2391;47.212;7.542;2024-01-11T08:33:12;1.10;99.90
4755;DHT22;2391;47.212;7.542;2024-01-11T08:35:39;1.10;99.90
4755;DHT22;2391;47.212;7.542;2024-01-11T08:38:06;1.00;99.90
4755;DHT22;2391;47.212;7.542;2024-01-11T08:40:33;1.10;99.90
4755;DHT22;2391;47.212;7.542;2024-01-11T08:42:59;1.20;99.90
4755;DHT22;2391;47.212;7.542;2024-01-11T08:45:25;1.30;99.90
4755;DHT22;2391;47.212;7.542;2024-01-11T08:47:51;1.40;99.90
4755;DHT22;2391;47.212;7.542;2024-01-11T08:50:17;1.50;99.90
4755;DHT22;2391;47.212;7.542;2024-01-11T08:52:43;1.50;99.90
4755;DHT22;2391;47.212;7.542;2024-01-11T08:55:09;1.50;99.90
4755;DHT22;2391;47.212;7.542;2024-01-11T08:57:35;1.40;99.90
4755;DHT22;2391;47.212;7.542;2024-01-11T09:00:03;1.40;99.90
4755;DHT22;2391;47.212;7.542;2024-01-11T09:02:30;1.40;99.90
4755;DHT22;2391;47.212;7.542;2024-01-11T09:04:55;1.40;99.90
4755;DHT22;2391;47.212;7.542;2024-01-11T09:07:21;1.40;99.90
4755;DHT22;2391;47.212;7.542;2024-01-11T09:09:47;1.40;99.90
4755;DHT22;2391;47.212;7.542;2024-01-11T09:12:13;1.40;99.90
4755;DHT22;2391;47.212;7.542;2024-01-11T09:14:39;1.50;99.90
4755;DHT22;2391;47.212;7.542;2024-01-11T09:17:05;1.60;99.90
4755;DHT22;2391;47.212;7.542;2024-01-11T09:19:32;1.60;99.90
4755;DHT22;2391;47.212;7.542;2024-01-11T09:21:59;1.60;99.90
4755;DHT22;2391;47.212;7.542;2024-01-11T09:24:25;1.60;99.90
4755;DHT22;2391;47.212;7.542;2024-01-11T09:26:51;1.70;99.80
4755;DHT22;2391;47.212;7.542;2024-01-11T09:29:17;1.70;99.50
4755;DHT22;2391;47.212;7.542;2024-01-11T09:31:43;1.70;99.40
4755;DHT22;2391;47.212;7.542;2024-01-11T09:34:09;1.70;99.40
4755;DHT22;2391;47.212;7.542;2024-01-11T09:36:35;1.70;99.50
4755;DHT22;2391;47.212;7.542;2024-01-11T09:39:03;1.80;99.40
4755;DHT22;2391;47.212;7.542;2024-01-11T09:41:29;1.80;99.50
4755;DHT22;2391;47.212;7.542;2024-01-11T09:43:59;1.80;99.10
4755;DHT22;2391;47.212;7.542;2024-01-11T09:46:26;1.80;99.10
4755;DHT22;2391;47.212;7.542;2024-01-11T09:48:53;1.80;99.30
4755;DHT22;2391;47.212;7.542;2024-01-11T09:51:21;1.80;99.10
4755;DHT22;2391;47.212;7.542;2024-01-11T09:53:49;1.70;99.10
4755;DHT22;2391;47.212;7.542;2024-01-11T09:56:16;1.60;99.10
4755;DHT22;2391;47.212;7.542;2024-01-11T09:58:45;1.60;99.40
4755;DHT22;2391;47.212;7.542;2024-01-11T10:01:14;1.60;99.40
4755;DHT22;2391;47.212;7.542;2024-01-11T10:03:40;1.60;99.40
4755;DHT22;2391;47.212;7.542;2024-01-11T10:06:08;1.50;99.50
4755;DHT22;2391;47.212;7.542;2024-01-11T10:08:35;1.60;99.60
4755;DHT22;2391;47.212;7.542;2024-01-11T10:11:02;1.60;99.60
4755;DHT22;2391;47.212;7.542;2024-01-11T10:13:30;1.60;99.40
4755;DHT22;2391;47.212;7.542;2024-01-11T10:16:07;1.60;99.40
4755;DHT22;2391;47.212;7.542;2024-01-11T10:18:33;1.60;99.60
4755;DHT22;2391;47.212;7.542;2024-01-11T10:20:59;1.60;99.70
4755;DHT22;2391;47.212;7.542;2024-01-11T10:23:25;1.70;99.50
4755;DHT22;2391;47.212;7.542;2024-01-11T10:25:53;1.70;99.20
4755;DHT22;2391;47.212;7.542;2024-01-11T10:28:19;1.70;99.10
4755;DHT22;2391;47.212;7.542;2024-01-11T10:30:48;1.60;99.20
4755;DHT22;2391;47.212;7.542;2024-01-11T10:33:15;1.60;99.40
4755;DHT22;2391;47.212;7.542;2024-01-11T10:35:41;1.50;99.40
4755;DHT22;2391;47.212;7.542;2024-01-11T10:38:09;1.50;99.80
4755;DHT22;2391;47.212;7.542;2024-01-11T10:40:35;1.50;99.60
4755;DHT22;2391;47.212;7.542;2024-01-11T10:43:02;1.50;99.60
4755;DHT22;2391;47.212;7.542;2024-01-11T10:45:31;1.50;99.70
4755;DHT22;2391;47.212;7.542;2024-01-11T10:48:02;1.50;99.60
4755;DHT22;2391;47.212;7.542;2024-01-11T10:50:36;1.50;99.50
4755;DHT22;2391;47.212;7.542;2024-01-11T10:53:38;1.50;99.60
4755;DHT22;2391;47.212;7.542;2024-01-11T10:56:05;1.50;99.50
4755;DHT22;2391;47.212;7.542;2024-01-11T10:58:33;1.40;99.50
4755;DHT22;2391;47.212;7.542;2024-01-11T11:01:02;1.30;99.70
4755;DHT22;2391;47.212;7.542;2024-01-11T11:03:30;1.30;99.80
4755;DHT22;2391;47.212;7.542;2024-01-11T11:06:00;1.40;99.90
4755;DHT22;2391;47.212;7.542;2024-01-11T11:08:27;1.40;99.60
4755;DHT22;2391;47.212;7.542;2024-01-11T11:10:57;1.40;99.80
4755;DHT22;2391;47.212;7.542;2024-01-11T11:13:24;1.40;99.80
4755;DHT22;2391;47.212;7.542;2024-01-11T11:15:52;1.40;99.90
4755;DHT22;2391;47.212;7.542;2024-01-11T11:18:19;1.40;99.90
4755;DHT22;2391;47.212;7.542;2024-01-11T11:20:47;1.50;99.90
4755;DHT22;2391;47.212;7.542;2024-01-11T11:23:17;1.50;99.90
4755;DHT22;2391;47.212;7.542;2024-01-11T11:25:48;1.50;99.90
4755;DHT22;2391;47.212;7.542;2024-01-11T11:28:17;1.50;99.90
4755;DHT22;2391;47.212;7.542;2024-01-11T11:30:44;1.60;99.80
4755;DHT22;2391;47.212;7.542;2024-01-11T11:33:22;1.70;99.70
4755;DHT22;2391;47.212;7.542;2024-01-11T11:35:53;1.70;99.40
4755;DHT22;2391;47.212;7.542;2024-01-11T11:38:25;1.80;99.20
4755;DHT22;2391;47.212;7.542;2024-01-11T11:40:52;1.70;99.20
4755;DHT22;2391;47.212;7.542;2024-01-11T11:43:20;1.60;99.40
4755;DHT22;2391;47.212;7.542;2024-01-11T11:45:48;1.50;99.50
4755;DHT22;2391;47.212;7.542;2024-01-11T11:51:07;1.60;99.70
4755;DHT22;2391;47.212;7.542;2024-01-11T11:53:34;1.50;99.80
4755;DHT22;2391;47.212;7.542;2024-01-11T11:56:01;1.50;99.70
4755;DHT22;2391;47.212;7.542;2024-01-11T11:58:29;1.60;99.70
4755;DHT22;2391;47.212;7.542;2024-01-11T12:00:56;1.60;99.80
4755;DHT22;2391;47.212;7.542;2024-01-11T12:05:58;1.80;99.50
4755;DHT22;2391;47.212;7.542;2024-01-11T12:08:24;1.90;99.40
4755;DHT22;2391;47.212;7.542;2024-01-11T12:10:51;1.80;99.30
4755;DHT22;2391;47.212;7.542;2024-01-11T12:13:18;1.80;99.40
4755;DHT22;2391;47.212;7.542;2024-01-11T12:15:43;1.90;99.40
4755;DHT22;2391;47.212;7.542;2024-01-11T12:18:10;1.80;99.10
4755;DHT22;2391;47.212;7.542;2024-01-11T12:20:36;1.80;99.20
4755;DHT22;2391;47.212;7.542;2024-01-11T12:23:02;1.70;99.30
4755;DHT22;2391;47.212;7.542;2024-01-11T12:25:29;1.60;99.40
4755;DHT22;2391;47.212;7.542;2024-01-11T12:27:56;1.60;99.40
4755;DHT22;2391;47.212;7.542;2024-01-11T12:30:23;1.60;99.20
4755;DHT22;2391;47.212;7.542;2024-01-11T12:32:50;1.50;99.20
4755;DHT22;2391;47.212;7.542;2024-01-11T12:35:17;1.40;99.30
4755;DHT22;2391;47.212;7.542;2024-01-11T12:37:58;1.40;99.40
4755;DHT22;2391;47.212;7.542;2024-01-11T12:40:22;1.40;99.60
4755;DHT22;2391;47.212;7.542;2024-01-11T12:42:49;1.40;99.60
4755;DHT22;2391;47.212;7.542;2024-01-11T12:45:16;1.40;99.40
4755;DHT22;2391;47.212;7.542;2024-01-11T12:47:43;1.40;99.50
4755;DHT22;2391;47.212;7.542;2024-01-11T12:50:11;1.40;99.50
4755;DHT22;2391;47.212;7.542;2024-01-11T12:52:40;1.30;99.30
4755;DHT22;2391;47.212;7.542;2024-01-11T12:55:08;1.30;99.50
4755;DHT22;2391;47.212;7.542;2024-01-11T12:57:35;1.30;99.40
4755;DHT22;2391;47.212;7.542;2024-01-11T13:00:11;1.30;99.40
4755;DHT22;2391;47.212;7.542;2024-01-11T13:02:40;1.20;99.70
4755;DHT22;2391;47.212;7.542;2024-01-11T13:05:08;1.20;99.60
4755;DHT22;2391;47.212;7.542;2024-01-11T13:07:36;1.30;99.60
4755;DHT22;2391;47.212;7.542;2024-01-11T13:10:02;1.30;99.50
4755;DHT22;2391;47.212;7.542;2024-01-11T13:12:30;1.30;99.50
4755;DHT22;2391;47.212;7.542;2024-01-11T13:14:56;1.30;99.70
4755;DHT22;2391;47.212;7.542;2024-01-11T13:17:22;1.30;99.40
4755;DHT22;2391;47.212;7.542;2024-01-11T13:19:48;1.30;99.20
4755;DHT22;2391;47.212;7.542;2024-01-11T13:22:13;1.30;99.30
4755;DHT22;2391;47.212;7.542;2024-01-11T13:24:39;1.30;99.40
4755;DHT22;2391;47.212;7.542;2024-01-11T13:27:05;1.20;99.30
4755;DHT22;2391;47.212;7.542;2024-01-11T13:29:31;1.10;99.20
4755;DHT22;2391;47.212;7.542;2024-01-11T13:31:57;1.00;99.30
4755;DHT22;2391;47.212;7.542;2024-01-11T13:34:23;0.90;99.40
4755;DHT22;2391;47.212;7.542;2024-01-11T13:36:49;0.80;99.60
4755;DHT22;2391;47.212;7.542;2024-01-11T13:39:15;0.80;99.60
4755;DHT22;2391;47.212;7.542;2024-01-11T13:41:43;0.80;99.60
4755;DHT22;2391;47.212;7.542;2024-01-11T13:44:09;0.80;99.80
4755;DHT22;2391;47.212;7.542;2024-01-11T13:46:37;0.80;99.90
4755;DHT22;2391;47.212;7.542;2024-01-11T13:49:03;0.90;99.90
4755;DHT22;2391;47.212;7.542;2024-01-11T13:51:30;1.00;99.80
4755;DHT22;2391;47.212;7.542;2024-01-11T13:53:58;1.10;99.80
4755;DHT22;2391;47.212;7.542;2024-01-11T13:56:27;1.10;99.60
4755;DHT22;2391;47.212;7.542;2024-01-11T13:58:53;1.10;99.70
4755;DHT22;2391;47.212;7.542;2024-01-11T14:01:19;1.10;99.50
4755;DHT22;2391;47.212;7.542;2024-01-11T14:03:44;1.00;99.50
4755;DHT22;2391;47.212;7.542;2024-01-11T14:06:10;0.90;99.70
4755;DHT22;2391;47.212;7.542;2024-01-11T14:08:36;0.90;99.90
4755;DHT22;2391;47.212;7.542;2024-01-11T14:11:03;0.90;99.90
4755;DHT22;2391;47.212;7.542;2024-01-11T14:13:29;0.80;99.90
4755;DHT22;2391;47.212;7.542;2024-01-11T14:15:55;0.90;99.90
4755;DHT22;2391;47.212;7.542;2024-01-11T14:18:22;0.90;99.90
4755;DHT22;2391;47.212;7.542;2024-01-11T14:20:48;1.00;99.90
4755;DHT22;2391;47.212;7.542;2024-01-11T14:23:14;1.00;99.80
4755;DHT22;2391;47.212;7.542;2024-01-11T14:25:41;1.00;99.80
4755;DHT22;2391;47.212;7.542;2024-01-11T14:28:07;1.00;99.80
4755;DHT22;2391;47.212;7.542;2024-01-11T14:30:33;1.10;99.80
4755;DHT22;2391;47.212;7.542;2024-01-11T14:33:00;1.20;99.90
4755;DHT22;2391;47.212;7.542;2024-01-11T14:35:26;1.20;99.80
4755;DHT22;2391;47.212;7.542;2024-01-11T14:37:51;1.30;99.80
4755;DHT22;2391;47.212;7.542;2024-01-11T14:40:18;1.30;99.80
4755;DHT22;2391;47.212;7.542;2024-01-11T14:42:48;1.30;99.70
4755;DHT22;2391;47.212;7.542;2024-01-11T14:45:14;1.10;99.30
4755;DHT22;2391;47.212;7.542;2024-01-11T14:47:39;1.10;99.60
4755;DHT22;2391;47.212;7.542;2024-01-11T14:50:06;1.00;99.60
4755;DHT22;2391;47.212;7.542;2024-01-11T14:52:34;1.00;99.60
4755;DHT22;2391;47.212;7.542;2024-01-11T14:55:00;1.00;99.70
4755;DHT22;2391;47.212;7.542;2024-01-11T14:57:26;1.10;99.70
4755;DHT22;2391;47.212;7.542;2024-01-11T14:59:52;1.10;99.50
4755;DHT22;2391;47.212;7.542;2024-01-11T15:02:18;1.00;99.70
4755;DHT22;2391;47.212;7.542;2024-01-11T15:04:44;1.00;99.80
4755;DHT22;2391;47.212;7.542;2024-01-11T15:07:10;1.10;99.90
4755;DHT22;2391;47.212;7.542;2024-01-11T15:09:35;1.20;99.90
4755;DHT22;2391;47.212;7.542;2024-01-11T15:12:02;1.20;99.60
4755;DHT22;2391;47.212;7.542;2024-01-11T15:14:28;1.30;99.50
4755;DHT22;2391;47.212;7.542;2024-01-11T15:16:54;1.30;99.60
4755;DHT22;2391;47.212;7.542;2024-01-11T15:19:20;1.30;99.30
4755;DHT22;2391;47.212;7.542;2024-01-11T15:21:45;1.20;99.40
4755;DHT22;2391;47.212;7.542;2024-01-11T15:24:11;1.00;99.40
4755;DHT22;2391;47.212;7.542;2024-01-11T15:26:38;1.00;99.50
4755;DHT22;2391;47.212;7.542;2024-01-11T15:29:04;1.00;99.50
4755;DHT22;2391;47.212;7.542;2024-01-11T15:31:29;1.00;99.40
4755;DHT22;2391;47.212;7.542;2024-01-11T15:33:55;1.00;99.50
4755;DHT22;2391;47.212;7.542;2024-01-11T15:36:21;1.00;99.60
4755;DHT22;2391;47.212;7.542;2024-01-11T15:38:47;1.00;99.60
4755;DHT22;2391;47.212;7.542;2024-01-11T15:41:14;1.10;99.50
4755;DHT22;2391;47.212;7.542;2024-01-11T15:43:40;1.00;99.60
4755;DHT22;2391;47.212;7.542;2024-01-11T15:46:06;1.10;99.60
4755;DHT22;2391;47.212;7.542;2024-01-11T15:48:32;1.20;99.50
4755;DHT22;2391;47.212;7.542;2024-01-11T15:50:58;1.30;99.30
4755;DHT22;2391;47.212;7.542;2024-01-11T15:53:24;1.40;99.30
4755;DHT22;2391;47.212;7.542;2024-01-11T15:55:50;1.40;99.10
4755;DHT22;2391;47.212;7.542;2024-01-11T15:58:16;1.40;98.90
4755;DHT22;2391;47.212;7.542;2024-01-11T16:00:42;1.40;98.80
4755;DHT22;2391;47.212;7.542;2024-01-11T16:03:09;1.30;98.90
4755;DHT22;2391;47.212;7.542;2024-01-11T16:05:35;1.20;98.90
4755;DHT22;2391;47.212;7.542;2024-01-11T16:08:01;1.20;99.00
4755;DHT22;2391;47.212;7.542;2024-01-11T16:10:27;1.10;99.00
4755;DHT22;2391;47.212;7.542;2024-01-11T16:12:53;1.10;99.30
4755;DHT22;2391;47.212;7.542;2024-01-11T16:15:20;1.10;99.20
4755;DHT22;2391;47.212;7.542;2024-01-11T16:17:45;1.10;99.10